Terminal Aerodrome Forecast
Issued by NWS Portland, OR

Home | Current Version | Previous Version | Text Only | Print | Product List | Glossary On
Versions: 1 2 3 4 5 6 7 8 9 10 11 12 13 14 15 16 17 18 19 20 21 22 23 24 25 26 27 28 29 30
000
FTUS46 KPQR 180602 RRA
TAFAST
TAF
KAST 180602Z 1806/1906 21022G32KT P6SM -SHRA SCT020 BKN035 OVC045
     FM180700 21020G28KT P6SM -SHRA SCT020 BKN035 BKN050
     FM181200 21017G27KT 5SM -RA BR SCT015 BKN025 OVC040
     FM181700 22020G30KT P6SM -SHRA SCT020 BKN045
     FM190000 21015G22KT P6SM -SHRA OVC050=

USA.gov is the U.S. government's official web portal to all federal, state and local government web resources and services.